sensor_id;sensor_type;location;lat;lon;timestamp;temperature;humidity
21216;DHT22;10765;50.954;5.322;2022-08-26T00:01:13;21.10;1.00
21216;DHT22;10765;50.954;5.322;2022-08-26T00:03:41;21.20;99.90
21216;DHT22;10765;50.954;5.322;2022-08-26T00:06:08;21.20;99.90
21216;DHT22;10765;50.954;5.322;2022-08-26T00:08:36;21.20;59.50
21216;DHT22;10765;50.954;5.322;2022-08-26T00:11:03;21.10;1.00
21216;DHT22;10765;50.954;5.322;2022-08-26T00:13:30;21.10;1.00
21216;DHT22;10765;50.954;5.322;2022-08-26T00:15:57;21.00;1.00
21216;DHT22;10765;50.954;5.322;2022-08-26T00:18:24;21.00;1.00
21216;DHT22;10765;50.954;5.322;2022-08-26T00:20:51;21.00;99.90
21216;DHT22;10765;50.954;5.322;2022-08-26T00:23:19;21.00;99.90
21216;DHT22;10765;50.954;5.322;2022-08-26T00:25:48;21.00;99.90
21216;DHT22;10765;50.954;5.322;2022-08-26T00:28:15;20.90;1.00
21216;DHT22;10765;50.954;5.322;2022-08-26T00:30:42;20.90;99.90
21216;DHT22;10765;50.954;5.322;2022-08-26T00:33:12;20.90;99.90
21216;DHT22;10765;50.954;5.322;2022-08-26T00:35:40;20.90;59.50
21216;DHT22;10765;50.954;5.322;2022-08-26T00:38:07;20.80;99.90
21216;DHT22;10765;50.954;5.322;2022-08-26T00:40:36;20.70;1.00
21216;DHT22;10765;50.954;5.322;2022-08-26T00:43:05;20.70;1.00
21216;DHT22;10765;50.954;5.322;2022-08-26T00:45:38;20.70;1.00
21216;DHT22;10765;50.954;5.322;2022-08-26T00:48:06;20.60;1.00
21216;DHT22;10765;50.954;5.322;2022-08-26T00:50:38;20.50;1.00
21216;DHT22;10765;50.954;5.322;2022-08-26T00:53:09;20.50;99.90
21216;DHT22;10765;50.954;5.322;2022-08-26T00:55:50;20.50;99.90
21216;DHT22;10765;50.954;5.322;2022-08-26T00:58:22;20.40;1.00
21216;DHT22;10765;50.954;5.322;2022-08-26T01:00:50;20.40;99.90
21216;DHT22;10765;50.954;5.322;2022-08-26T01:03:18;20.30;99.90
21216;DHT22;10765;50.954;5.322;2022-08-26T01:05:47;20.30;1.00
21216;DHT22;10765;50.954;5.322;2022-08-26T01:08:15;20.30;99.90
21216;DHT22;10765;50.954;5.322;2022-08-26T01:10:42;20.30;1.00
21216;DHT22;10765;50.954;5.322;2022-08-26T01:13:10;20.30;99.90
21216;DHT22;10765;50.954;5.322;2022-08-26T01:15:42;20.20;1.00
21216;DHT22;10765;50.954;5.322;2022-08-26T01:18:09;20.20;99.90
21216;DHT22;10765;50.954;5.322;2022-08-26T01:20:42;20.30;1.00
21216;DHT22;10765;50.954;5.322;2022-08-26T01:23:13;20.30;1.00
21216;DHT22;10765;50.954;5.322;2022-08-26T01:25:42;20.30;1.00
21216;DHT22;10765;50.954;5.322;2022-08-26T01:28:12;20.40;1.00
21216;DHT22;10765;50.954;5.322;2022-08-26T01:30:40;20.40;99.90
21216;DHT22;10765;50.954;5.322;2022-08-26T01:33:11;20.30;99.90
21216;DHT22;10765;50.954;5.322;2022-08-26T01:35:40;20.30;99.90
21216;DHT22;10765;50.954;5.322;2022-08-26T01:38:07;20.30;1.00
21216;DHT22;10765;50.954;5.322;2022-08-26T01:40:37;20.20;1.00
21216;DHT22;10765;50.954;5.322;2022-08-26T01:43:07;20.30;1.00
21216;DHT22;10765;50.954;5.322;2022-08-26T01:45:40;20.20;1.00
21216;DHT22;10765;50.954;5.322;2022-08-26T01:48:11;20.30;1.00
21216;DHT22;10765;50.954;5.322;2022-08-26T01:50:39;20.30;1.00
21216;DHT22;10765;50.954;5.322;2022-08-26T01:53:10;20.30;99.90
21216;DHT22;10765;50.954;5.322;2022-08-26T01:55:42;20.30;1.00
21216;DHT22;10765;50.954;5.322;2022-08-26T01:58:14;20.30;93.20
21216;DHT22;10765;50.954;5.322;2022-08-26T02:00:42;20.30;20.30
21216;DHT22;10765;50.954;5.322;2022-08-26T02:03:10;20.30;1.00
21216;DHT22;10765;50.954;5.322;2022-08-26T02:05:44;20.30;99.90
21216;DHT22;10765;50.954;5.322;2022-08-26T02:08:12;20.30;1.00
21216;DHT22;10765;50.954;5.322;2022-08-26T02:10:41;20.20;99.90
21216;DHT22;10765;50.954;5.322;2022-08-26T02:13:09;20.20;99.90
21216;DHT22;10765;50.954;5.322;2022-08-26T02:15:40;20.30;1.00
21216;DHT22;10765;50.954;5.322;2022-08-26T02:18:08;20.30;99.90
21216;DHT22;10765;50.954;5.322;2022-08-26T02:20:36;20.30;99.90
21216;DHT22;10765;50.954;5.322;2022-08-26T02:23:03;20.40;1.00
21216;DHT22;10765;50.954;5.322;2022-08-26T02:25:33;20.40;1.00
21216;DHT22;10765;50.954;5.322;2022-08-26T02:28:04;20.40;1.00
21216;DHT22;10765;50.954;5.322;2022-08-26T02:30:32;20.40;1.00
21216;DHT22;10765;50.954;5.322;2022-08-26T02:33:00;20.50;99.90
21216;DHT22;10765;50.954;5.322;2022-08-26T02:35:28;20.50;3.00
21216;DHT22;10765;50.954;5.322;2022-08-26T02:37:55;20.50;1.00
21216;DHT22;10765;50.954;5.322;2022-08-26T02:40:26;20.40;99.90
21216;DHT22;10765;50.954;5.322;2022-08-26T02:42:54;20.40;70.60
21216;DHT22;10765;50.954;5.322;2022-08-26T02:45:23;20.50;78.60
21216;DHT22;10765;50.954;5.322;2022-08-26T02:47:51;20.40;4.10
21216;DHT22;10765;50.954;5.322;2022-08-26T02:50:17;20.40;99.90
21216;DHT22;10765;50.954;5.322;2022-08-26T02:52:44;20.50;1.00
21216;DHT22;10765;50.954;5.322;2022-08-26T02:55:13;20.50;1.00
21216;DHT22;10765;50.954;5.322;2022-08-26T02:57:39;20.60;99.90
21216;DHT22;10765;50.954;5.322;2022-08-26T03:00:10;20.60;99.90
21216;DHT22;10765;50.954;5.322;2022-08-26T03:02:40;20.60;1.00
21216;DHT22;10765;50.954;5.322;2022-08-26T03:05:08;20.60;1.00
21216;DHT22;10765;50.954;5.322;2022-08-26T03:07:35;20.60;1.00
21216;DHT22;10765;50.954;5.322;2022-08-26T03:10:03;20.60;1.00
21216;DHT22;10765;50.954;5.322;2022-08-26T03:12:30;20.60;1.00
21216;DHT22;10765;50.954;5.322;2022-08-26T03:14:57;20.60;1.00
21216;DHT22;10765;50.954;5.322;2022-08-26T03:17:24;20.70;1.00
21216;DHT22;10765;50.954;5.322;2022-08-26T03:19:52;20.70;99.90
21216;DHT22;10765;50.954;5.322;2022-08-26T03:22:20;20.60;99.90
21216;DHT22;10765;50.954;5.322;2022-08-26T03:24:47;20.70;99.90
21216;DHT22;10765;50.954;5.322;2022-08-26T03:27:14;20.60;1.00
21216;DHT22;10765;50.954;5.322;2022-08-26T03:29:41;20.50;1.00
21216;DHT22;10765;50.954;5.322;2022-08-26T03:32:25;20.60;1.00
21216;DHT22;10765;50.954;5.322;2022-08-26T03:34:53;20.60;99.90
21216;DHT22;10765;50.954;5.322;2022-08-26T03:37:21;20.60;99.90
21216;DHT22;10765;50.954;5.322;2022-08-26T03:39:48;20.50;99.90
21216;DHT22;10765;50.954;5.322;2022-08-26T03:42:15;20.50;1.00
21216;DHT22;10765;50.954;5.322;2022-08-26T03:44:42;20.30;99.90
21216;DHT22;10765;50.954;5.322;2022-08-26T03:47:10;20.30;99.90
21216;DHT22;10765;50.954;5.322;2022-08-26T03:49:37;20.30;99.90
21216;DHT22;10765;50.954;5.322;2022-08-26T03:52:05;20.40;1.00
21216;DHT22;10765;50.954;5.322;2022-08-26T03:54:32;20.50;1.00
21216;DHT22;10765;50.954;5.322;2022-08-26T03:57:00;20.50;1.00
21216;DHT22;10765;50.954;5.322;2022-08-26T03:59:27;20.40;1.00
21216;DHT22;10765;50.954;5.322;2022-08-26T04:01:54;20.40;1.00
21216;DHT22;10765;50.954;5.322;2022-08-26T04:04:21;20.40;1.00
21216;DHT22;10765;50.954;5.322;2022-08-26T04:06:47;20.40;1.00
21216;DHT22;10765;50.954;5.322;2022-08-26T04:09:19;20.40;1.00
21216;DHT22;10765;50.954;5.322;2022-08-26T04:11:46;20.40;1.00
21216;DHT22;10765;50.954;5.322;2022-08-26T04:14:16;20.40;1.00
21216;DHT22;10765;50.954;5.322;2022-08-26T04:16:44;20.40;1.00
21216;DHT22;10765;50.954;5.322;2022-08-26T04:19:12;20.30;99.90
21216;DHT22;10765;50.954;5.322;2022-08-26T04:21:40;20.40;1.00
21216;DHT22;10765;50.954;5.322;2022-08-26T04:24:09;20.40;1.00
21216;DHT22;10765;50.954;5.322;2022-08-26T04:26:38;20.40;1.00
21216;DHT22;10765;50.954;5.322;2022-08-26T04:29:08;20.40;1.00
21216;DHT22;10765;50.954;5.322;2022-08-26T04:31:36;20.30;1.00
21216;DHT22;10765;50.954;5.322;2022-08-26T04:34:04;20.20;86.00
21216;DHT22;10765;50.954;5.322;2022-08-26T04:36:31;20.20;99.90
21216;DHT22;10765;50.954;5.322;2022-08-26T04:38:59;20.10;99.90
21216;DHT22;10765;50.954;5.322;2022-08-26T04:41:26;20.10;1.00
21216;DHT22;10765;50.954;5.322;2022-08-26T04:43:55;20.20;99.90
21216;DHT22;10765;50.954;5.322;2022-08-26T04:46:23;20.30;8.00
21216;DHT22;10765;50.954;5.322;2022-08-26T04:48:52;20.30;1.00
21216;DHT22;10765;50.954;5.322;2022-08-26T04:51:20;20.30;1.00
21216;DHT22;10765;50.954;5.322;2022-08-26T04:53:52;20.30;1.00
21216;DHT22;10765;50.954;5.322;2022-08-26T04:56:21;20.30;1.00
21216;DHT22;10765;50.954;5.322;2022-08-26T04:58:48;20.20;60.90
21216;DHT22;10765;50.954;5.322;2022-08-26T05:01:16;20.20;99.90
21216;DHT22;10765;50.954;5.322;2022-08-26T05:03:43;20.30;35.80
21216;DHT22;10765;50.954;5.322;2022-08-26T05:06:10;20.40;99.90
21216;DHT22;10765;50.954;5.322;2022-08-26T05:08:37;20.50;99.90
21216;DHT22;10765;50.954;5.322;2022-08-26T05:11:05;20.50;1.00
21216;DHT22;10765;50.954;5.322;2022-08-26T05:13:33;20.40;99.90
21216;DHT22;10765;50.954;5.322;2022-08-26T05:16:03;20.30;99.90
21216;DHT22;10765;50.954;5.322;2022-08-26T05:18:32;20.40;99.90
21216;DHT22;10765;50.954;5.322;2022-08-26T05:21:00;20.40;99.90
21216;DHT22;10765;50.954;5.322;2022-08-26T05:23:28;20.50;1.00
21216;DHT22;10765;50.954;5.322;2022-08-26T05:25:57;20.40;1.00
21216;DHT22;10765;50.954;5.322;2022-08-26T05:28:26;20.30;1.00
21216;DHT22;10765;50.954;5.322;2022-08-26T05:30:53;20.10;1.00
21216;DHT22;10765;50.954;5.322;2022-08-26T05:33:20;20.20;1.00
21216;DHT22;10765;50.954;5.322;2022-08-26T05:35:48;20.00;1.00
21216;DHT22;10765;50.954;5.322;2022-08-26T05:38:17;20.10;1.00
21216;DHT22;10765;50.954;5.322;2022-08-26T05:40:46;20.20;1.00
21216;DHT22;10765;50.954;5.322;2022-08-26T05:43:14;20.30;99.90
21216;DHT22;10765;50.954;5.322;2022-08-26T05:45:43;20.30;99.90
21216;DHT22;10765;50.954;5.322;2022-08-26T05:48:11;20.30;99.90
21216;DHT22;10765;50.954;5.322;2022-08-26T05:50:39;20.40;99.90
21216;DHT22;10765;50.954;5.322;2022-08-26T05:53:08;20.30;99.90
21216;DHT22;10765;50.954;5.322;2022-08-26T05:55:42;20.30;1.60
21216;DHT22;10765;50.954;5.322;2022-08-26T05:58:09;20.30;99.90
21216;DHT22;10765;50.954;5.322;2022-08-26T06:00:37;20.40;23.90
21216;DHT22;10765;50.954;5.322;2022-08-26T06:03:04;20.40;1.00
21216;DHT22;10765;50.954;5.322;2022-08-26T06:05:36;20.50;1.00
21216;DHT22;10765;50.954;5.322;2022-08-26T06:08:03;20.60;1.00
21216;DHT22;10765;50.954;5.322;2022-08-26T06:10:46;20.60;99.90
21216;DHT22;10765;50.954;5.322;2022-08-26T06:13:14;20.60;99.90
21216;DHT22;10765;50.954;5.322;2022-08-26T06:15:43;20.60;99.90
21216;DHT22;10765;50.954;5.322;2022-08-26T06:18:12;20.60;99.90
21216;DHT22;10765;50.954;5.322;2022-08-26T06:20:39;20.60;99.90
21216;DHT22;10765;50.954;5.322;2022-08-26T06:23:09;20.90;99.90
21216;DHT22;10765;50.954;5.322;2022-08-26T06:26:10;21.10;6.20
21216;DHT22;10765;50.954;5.322;2022-08-26T06:28:37;21.20;1.00
21216;DHT22;10765;50.954;5.322;2022-08-26T06:31:04;21.40;1.00
21216;DHT22;10765;50.954;5.322;2022-08-26T06:33:31;21.40;99.90
21216;DHT22;10765;50.954;5.322;2022-08-26T06:35:58;21.40;99.90
21216;DHT22;10765;50.954;5.322;2022-08-26T06:38:25;21.30;99.90
21216;DHT22;10765;50.954;5.322;2022-08-26T06:40:53;21.40;99.90
21216;DHT22;10765;50.954;5.322;2022-08-26T06:43:24;21.50;99.90
21216;DHT22;10765;50.954;5.322;2022-08-26T06:45:59;21.40;99.90
21216;DHT22;10765;50.954;5.322;2022-08-26T06:48:26;21.60;99.90
21216;DHT22;10765;50.954;5.322;2022-08-26T06:51:02;21.60;99.90
21216;DHT22;10765;50.954;5.322;2022-08-26T06:53:29;21.60;99.90
21216;DHT22;10765;50.954;5.322;2022-08-26T06:55:56;21.70;99.90
21216;DHT22;10765;50.954;5.322;2022-08-26T06:58:24;21.70;41.90
21216;DHT22;10765;50.954;5.322;2022-08-26T07:00:51;21.80;1.00
21216;DHT22;10765;50.954;5.322;2022-08-26T07:03:18;22.00;1.00
21216;DHT22;10765;50.954;5.322;2022-08-26T07:05:46;22.20;1.00
21216;DHT22;10765;50.954;5.322;2022-08-26T07:08:13;22.30;1.00
21216;DHT22;10765;50.954;5.322;2022-08-26T07:10:40;22.40;1.00
21216;DHT22;10765;50.954;5.322;2022-08-26T07:13:08;22.40;1.00
21216;DHT22;10765;50.954;5.322;2022-08-26T07:15:40;22.40;1.00
21216;DHT22;10765;50.954;5.322;2022-08-26T07:18:07;22.40;1.00
21216;DHT22;10765;50.954;5.322;2022-08-26T07:20:36;22.40;1.00
21216;DHT22;10765;50.954;5.322;2022-08-26T07:23:06;22.60;1.00
21216;DHT22;10765;50.954;5.322;2022-08-26T07:25:33;23.20;1.00
21216;DHT22;10765;50.954;5.322;2022-08-26T07:28:00;23.40;1.00
21216;DHT22;10765;50.954;5.322;2022-08-26T07:30:27;23.40;1.00
21216;DHT22;10765;50.954;5.322;2022-08-26T07:32:56;23.60;1.00
21216;DHT22;10765;50.954;5.322;2022-08-26T07:35:24;23.80;99.90
21216;DHT22;10765;50.954;5.322;2022-08-26T07:37:51;23.80;99.90
21216;DHT22;10765;50.954;5.322;2022-08-26T07:40:18;23.70;99.90
21216;DHT22;10765;50.954;5.322;2022-08-26T07:42:45;23.60;99.90
21216;DHT22;10765;50.954;5.322;2022-08-26T07:45:12;23.20;1.00
21216;DHT22;10765;50.954;5.322;2022-08-26T07:47:39;23.10;1.00
21216;DHT22;10765;50.954;5.322;2022-08-26T07:50:07;23.30;1.00
21216;DHT22;10765;50.954;5.322;2022-08-26T07:52:34;23.20;1.00
21216;DHT22;10765;50.954;5.322;2022-08-26T07:55:06;23.20;1.00
21216;DHT22;10765;50.954;5.322;2022-08-26T07:57:34;23.30;1.00
21216;DHT22;10765;50.954;5.322;2022-08-26T08:00:02;23.30;1.00
21216;DHT22;10765;50.954;5.322;2022-08-26T08:02:30;23.70;99.90
21216;DHT22;10765;50.954;5.322;2022-08-26T08:04:57;23.60;99.90
21216;DHT22;10765;50.954;5.322;2022-08-26T08:07:26;23.70;99.90
21216;DHT22;10765;50.954;5.322;2022-08-26T08:09:53;23.60;99.90
21216;DHT22;10765;50.954;5.322;2022-08-26T08:12:20;23.60;99.90
21216;DHT22;10765;50.954;5.322;2022-08-26T08:14:47;23.40;99.90
21216;DHT22;10765;50.954;5.322;2022-08-26T08:17:14;23.20;1.00
21216;DHT22;10765;50.954;5.322;2022-08-26T08:19:42;23.20;1.00
21216;DHT22;10765;50.954;5.322;2022-08-26T08:22:09;23.10;1.00
21216;DHT22;10765;50.954;5.322;2022-08-26T08:24:38;22.60;1.00
21216;DHT22;10765;50.954;5.322;2022-08-26T08:27:05;22.60;1.00
21216;DHT22;10765;50.954;5.322;2022-08-26T08:29:32;22.90;1.00
21216;DHT22;10765;50.954;5.322;2022-08-26T08:31:59;23.10;1.00
21216;DHT22;10765;50.954;5.322;2022-08-26T08:34:26;22.80;1.00
21216;DHT22;10765;50.954;5.322;2022-08-26T08:36:54;22.50;1.00
21216;DHT22;10765;50.954;5.322;2022-08-26T08:39:21;22.60;1.00
21216;DHT22;10765;50.954;5.322;2022-08-26T08:42:02;22.80;1.00
21216;DHT22;10765;50.954;5.322;2022-08-26T08:44:32;22.90;1.00
21216;DHT22;10765;50.954;5.322;2022-08-26T08:47:04;22.70;1.00
21216;DHT22;10765;50.954;5.322;2022-08-26T08:49:35;22.40;1.00
21216;DHT22;10765;50.954;5.322;2022-08-26T08:52:07;22.80;1.00
21216;DHT22;10765;50.954;5.322;2022-08-26T08:54:36;23.00;1.00
21216;DHT22;10765;50.954;5.322;2022-08-26T08:57:10;23.10;1.00
21216;DHT22;10765;50.954;5.322;2022-08-26T08:59:44;22.80;1.00
21216;DHT22;10765;50.954;5.322;2022-08-26T09:02:19;22.80;1.00
21216;DHT22;10765;50.954;5.322;2022-08-26T09:05:01;23.00;1.00
21216;DHT22;10765;50.954;5.322;2022-08-26T09:07:32;23.40;99.90
21216;DHT22;10765;50.954;5.322;2022-08-26T09:10:05;23.70;99.90
21216;DHT22;10765;50.954;5.322;2022-08-26T09:12:43;24.00;99.90
21216;DHT22;10765;50.954;5.322;2022-08-26T09:15:16;24.10;99.90
21216;DHT22;10765;50.954;5.322;2022-08-26T09:17:49;23.90;99.90
21216;DHT22;10765;50.954;5.322;2022-08-26T09:20:32;23.70;99.90
21216;DHT22;10765;50.954;5.322;2022-08-26T09:23:00;23.40;99.90
21216;DHT22;10765;50.954;5.322;2022-08-26T09:25:27;23.10;99.90
21216;DHT22;10765;50.954;5.322;2022-08-26T09:27:55;23.10;99.90
21216;DHT22;10765;50.954;5.322;2022-08-26T09:30:24;23.20;99.90
21216;DHT22;10765;50.954;5.322;2022-08-26T09:32:58;23.30;99.90
21216;DHT22;10765;50.954;5.322;2022-08-26T09:35:28;23.10;99.90
21216;DHT22;10765;50.954;5.322;2022-08-26T09:37:57;23.10;99.90
21216;DHT22;10765;50.954;5.322;2022-08-26T09:40:28;23.20;99.90
21216;DHT22;10765;50.954;5.322;2022-08-26T09:43:10;23.40;99.90
21216;DHT22;10765;50.954;5.322;2022-08-26T09:45:39;23.70;99.90
21216;DHT22;10765;50.954;5.322;2022-08-26T09:48:07;23.90;99.90
21216;DHT22;10765;50.954;5.322;2022-08-26T09:50:36;24.20;99.90
21216;DHT22;10765;50.954;5.322;2022-08-26T09:53:15;24.10;99.90
21216;DHT22;10765;50.954;5.322;2022-08-26T09:55:43;24.30;99.90
21216;DHT22;10765;50.954;5.322;2022-08-26T09:58:15;24.20;99.90
21216;DHT22;10765;50.954;5.322;2022-08-26T10:00:53;24.10;99.90
21216;DHT22;10765;50.954;5.322;2022-08-26T10:03:25;23.70;99.90
21216;DHT22;10765;50.954;5.322;2022-08-26T10:05:58;23.10;99.90
21216;DHT22;10765;50.954;5.322;2022-08-26T10:08:28;22.70;1.00
21216;DHT22;10765;50.954;5.322;2022-08-26T10:10:58;22.60;1.00
21216;DHT22;10765;50.954;5.322;2022-08-26T10:13:32;22.60;1.00
21216;DHT22;10765;50.954;5.322;2022-08-26T10:16:05;22.70;1.00
21216;DHT22;10765;50.954;5.322;2022-08-26T10:18:35;22.80;1.00
21216;DHT22;10765;50.954;5.322;2022-08-26T10:21:07;23.10;1.00
21216;DHT22;10765;50.954;5.322;2022-08-26T10:23:39;23.50;99.90
21216;DHT22;10765;50.954;5.322;2022-08-26T10:26:11;23.60;99.90
21216;DHT22;10765;50.954;5.322;2022-08-26T10:28:44;23.20;99.90
21216;DHT22;10765;50.954;5.322;2022-08-26T10:31:22;23.20;1.00
21216;DHT22;10765;50.954;5.322;2022-08-26T10:33:51;23.50;99.90
21216;DHT22;10765;50.954;5.322;2022-08-26T10:36:19;23.50;99.90
21216;DHT22;10765;50.954;5.322;2022-08-26T10:39:08;23.50;99.90
21216;DHT22;10765;50.954;5.322;2022-08-26T10:41:42;23.40;99.90
21216;DHT22;10765;50.954;5.322;2022-08-26T10:44:14;23.30;99.90
21216;DHT22;10765;50.954;5.322;2022-08-26T10:46:45;23.10;1.00
21216;DHT22;10765;50.954;5.322;2022-08-26T10:49:15;23.00;1.00
21216;DHT22;10765;50.954;5.322;2022-08-26T10:51:49;22.80;1.00
21216;DHT22;10765;50.954;5.322;2022-08-26T10:54:22;22.80;1.00
21216;DHT22;10765;50.954;5.322;2022-08-26T10:56:57;22.50;1.00
21216;DHT22;10765;50.954;5.322;2022-08-26T10:59:38;22.40;1.00
21216;DHT22;10765;50.954;5.322;2022-08-26T11:02:10;22.40;1.00
21216;DHT22;10765;50.954;5.322;2022-08-26T11:04:43;22.30;1.00
21216;DHT22;10765;50.954;5.322;2022-08-26T11:07:35;22.30;1.00
21216;DHT22;10765;50.954;5.322;2022-08-26T11:13:57;22.30;1.00
21216;DHT22;10765;50.954;5.322;2022-08-26T11:16:38;22.20;1.00
21216;DHT22;10765;50.954;5.322;2022-08-26T11:19:06;22.20;1.00
21216;DHT22;10765;50.954;5.322;2022-08-26T11:21:51;22.00;1.00
21216;DHT22;10765;50.954;5.322;2022-08-26T11:24:40;21.50;81.90
21216;DHT22;10765;50.954;5.322;2022-08-26T11:27:09;21.30;44.70
21216;DHT22;10765;50.954;5.322;2022-08-26T11:29:55;21.40;1.00
21216;DHT22;10765;50.954;5.322;2022-08-26T11:32:25;21.50;1.00
21216;DHT22;10765;50.954;5.322;2022-08-26T11:34:54;21.70;1.00
21216;DHT22;10765;50.954;5.322;2022-08-26T11:37:28;21.90;1.00
21216;DHT22;10765;50.954;5.322;2022-08-26T11:39:57;21.90;1.00
21216;DHT22;10765;50.954;5.322;2022-08-26T11:42:32;22.10;1.00
21216;DHT22;10765;50.954;5.322;2022-08-26T11:45:17;22.20;1.00
21216;DHT22;10765;50.954;5.322;2022-08-26T11:47:48;22.40;1.00
21216;DHT22;10765;50.954;5.322;2022-08-26T11:50:18;22.80;1.00
21216;DHT22;10765;50.954;5.322;2022-08-26T11:52:53;23.10;99.90
21216;DHT22;10765;50.954;5.322;2022-08-26T11:55:21;23.20;99.90
21216;DHT22;10765;50.954;5.322;2022-08-26T11:57:49;23.20;99.90
21216;DHT22;10765;50.954;5.322;2022-08-26T12:00:19;23.20;99.90
21216;DHT22;10765;50.954;5.322;2022-08-26T12:02:47;23.30;99.90
21216;DHT22;10765;50.954;5.322;2022-08-26T12:05:21;23.40;99.90
21216;DHT22;10765;50.954;5.322;2022-08-26T12:07:49;23.30;99.90
21216;DHT22;10765;50.954;5.322;2022-08-26T12:10:26;23.50;99.90
21216;DHT22;10765;50.954;5.322;2022-08-26T12:12:56;23.30;99.90
21216;DHT22;10765;50.954;5.322;2022-08-26T12:15:25;23.30;99.90
21216;DHT22;10765;50.954;5.322;2022-08-26T12:17:53;23.40;99.90
21216;DHT22;10765;50.954;5.322;2022-08-26T12:20:30;23.50;99.90
21216;DHT22;10765;50.954;5.322;2022-08-26T12:23:20;23.80;99.90
21216;DHT22;10765;50.954;5.322;2022-08-26T12:25:48;23.90;99.90
21216;DHT22;10765;50.954;5.322;2022-08-26T12:28:16;24.10;99.90
21216;DHT22;10765;50.954;5.322;2022-08-26T12:30:58;24.30;99.90
21216;DHT22;10765;50.954;5.322;2022-08-26T12:33:27;24.30;99.90
21216;DHT22;10765;50.954;5.322;2022-08-26T12:35:54;24.50;99.90
21216;DHT22;10765;50.954;5.322;2022-08-26T12:38:22;25.20;99.90
21216;DHT22;10765;50.954;5.322;2022-08-26T12:40:49;25.80;99.90
21216;DHT22;10765;50.954;5.322;2022-08-26T12:43:34;25.90;99.90
21216;DHT22;10765;50.954;5.322;2022-08-26T12:46:02;25.80;99.90
21216;DHT22;10765;50.954;5.322;2022-08-26T12:48:33;25.80;99.90
21216;DHT22;10765;50.954;5.322;2022-08-26T12:51:01;25.50;99.90
21216;DHT22;10765;50.954;5.322;2022-08-26T12:53:30;25.20;99.90
21216;DHT22;10765;50.954;5.322;2022-08-26T12:55:59;25.30;99.90
21216;DHT22;10765;50.954;5.322;2022-08-26T12:58:29;25.10;99.90
21216;DHT22;10765;50.954;5.322;2022-08-26T13:01:01;24.90;99.90
21216;DHT22;10765;50.954;5.322;2022-08-26T13:03:46;25.00;99.90
21216;DHT22;10765;50.954;5.322;2022-08-26T13:06:16;25.00;99.90
21216;DHT22;10765;50.954;5.322;2022-08-26T13:08:44;25.10;99.90
21216;DHT22;10765;50.954;5.322;2022-08-26T13:11:14;25.20;99.90
21216;DHT22;10765;50.954;5.322;2022-08-26T13:13:43;25.40;99.90
21216;DHT22;10765;50.954;5.322;2022-08-26T13:16:10;25.70;99.90
21216;DHT22;10765;50.954;5.322;2022-08-26T13:18:38;26.00;99.90
21216;DHT22;10765;50.954;5.322;2022-08-26T13:21:12;26.80;99.90
21216;DHT22;10765;50.954;5.322;2022-08-26T13:23:40;27.00;99.90
21216;DHT22;10765;50.954;5.322;2022-08-26T13:26:07;26.60;99.90
21216;DHT22;10765;50.954;5.322;2022-08-26T13:28:34;26.20;99.90
21216;DHT22;10765;50.954;5.322;2022-08-26T13:31:02;25.60;99.90
21216;DHT22;10765;50.954;5.322;2022-08-26T13:33:29;25.40;99.90
21216;DHT22;10765;50.954;5.322;2022-08-26T13:35:56;25.40;99.90
21216;DHT22;10765;50.954;5.322;2022-08-26T13:38:25;25.60;99.90
21216;DHT22;10765;50.954;5.322;2022-08-26T13:40:52;25.10;99.90
21216;DHT22;10765;50.954;5.322;2022-08-26T13:43:19;24.30;99.90
21216;DHT22;10765;50.954;5.322;2022-08-26T13:45:46;24.00;99.90
21216;DHT22;10765;50.954;5.322;2022-08-26T13:48:14;24.00;99.90
21216;DHT22;10765;50.954;5.322;2022-08-26T13:50:43;23.90;99.90
21216;DHT22;10765;50.954;5.322;2022-08-26T13:53:11;23.90;99.90
21216;DHT22;10765;50.954;5.322;2022-08-26T13:55:41;23.90;99.90
21216;DHT22;10765;50.954;5.322;2022-08-26T13:58:08;24.10;99.90
21216;DHT22;10765;50.954;5.322;2022-08-26T14:00:36;24.00;99.90
21216;DHT22;10765;50.954;5.322;2022-08-26T14:03:04;24.20;99.90
21216;DHT22;10765;50.954;5.322;2022-08-26T14:05:31;24.20;99.90
21216;DHT22;10765;50.954;5.322;2022-08-26T14:07:59;24.00;99.90
21216;DHT22;10765;50.954;5.322;2022-08-26T14:10:26;23.90;99.90
21216;DHT22;10765;50.954;5.322;2022-08-26T14:12:54;23.90;99.90
21216;DHT22;10765;50.954;5.322;2022-08-26T14:15:21;24.10;99.90
21216;DHT22;10765;50.954;5.322;2022-08-26T14:17:49;24.20;99.90
21216;DHT22;10765;50.954;5.322;2022-08-26T14:20:19;24.20;99.90
21216;DHT22;10765;50.954;5.322;2022-08-26T14:22:46;24.20;99.90
21216;DHT22;10765;50.954;5.322;2022-08-26T14:25:14;24.60;99.90
21216;DHT22;10765;50.954;5.322;2022-08-26T14:27:40;24.80;99.90
21216;DHT22;10765;50.954;5.322;2022-08-26T14:30:10;24.70;99.90
21216;DHT22;10765;50.954;5.322;2022-08-26T14:32:40;24.50;99.90
21216;DHT22;10765;50.954;5.322;2022-08-26T14:35:09;24.90;99.90
21216;DHT22;10765;50.954;5.322;2022-08-26T14:37:38;25.00;99.90
21216;DHT22;10765;50.954;5.322;2022-08-26T14:40:05;25.00;99.90
21216;DHT22;10765;50.954;5.322;2022-08-26T14:42:33;25.10;99.90
21216;DHT22;10765;50.954;5.322;2022-08-26T14:45:02;25.30;99.90
21216;DHT22;10765;50.954;5.322;2022-08-26T14:47:31;25.30;99.90
21216;DHT22;10765;50.954;5.322;2022-08-26T14:49:58;25.50;99.90
21216;DHT22;10765;50.954;5.322;2022-08-26T14:52:25;25.30;99.90
21216;DHT22;10765;50.954;5.322;2022-08-26T14:54:52;24.80;99.90
21216;DHT22;10765;50.954;5.322;2022-08-26T14:57:18;24.50;99.90
21216;DHT22;10765;50.954;5.322;2022-08-26T14:59:46;24.50;99.90
21216;DHT22;10765;50.954;5.322;2022-08-26T15:02:14;24.60;99.90
21216;DHT22;10765;50.954;5.322;2022-08-26T15:04:42;24.60;99.90
21216;DHT22;10765;50.954;5.322;2022-08-26T15:07:09;24.70;99.90
21216;DHT22;10765;50.954;5.322;2022-08-26T15:09:36;24.50;99.90
21216;DHT22;10765;50.954;5.322;2022-08-26T15:12:04;24.50;99.90
21216;DHT22;10765;50.954;5.322;2022-08-26T15:14:31;24.50;99.90
21216;DHT22;10765;50.954;5.322;2022-08-26T15:16:59;24.50;99.90
21216;DHT22;10765;50.954;5.322;2022-08-26T15:19:26;24.70;99.90
21216;DHT22;10765;50.954;5.322;2022-08-26T15:21:54;24.70;99.90
21216;DHT22;10765;50.954;5.322;2022-08-26T15:24:23;24.60;99.90
21216;DHT22;10765;50.954;5.322;2022-08-26T15:26:51;24.20;99.90
21216;DHT22;10765;50.954;5.322;2022-08-26T15:29:18;23.90;99.90
21216;DHT22;10765;50.954;5.322;2022-08-26T15:31:46;23.40;99.90
21216;DHT22;10765;50.954;5.322;2022-08-26T15:34:14;23.30;99.90
21216;DHT22;10765;50.954;5.322;2022-08-26T15:36:41;23.20;99.90
21216;DHT22;10765;50.954;5.322;2022-08-26T15:39:11;23.10;99.90
21216;DHT22;10765;50.954;5.322;2022-08-26T15:41:38;23.00;99.90
21216;DHT22;10765;50.954;5.322;2022-08-26T15:44:05;23.00;99.90
21216;DHT22;10765;50.954;5.322;2022-08-26T15:46:33;22.80;99.90
21216;DHT22;10765;50.954;5.322;2022-08-26T15:49:00;22.90;99.90
21216;DHT22;10765;50.954;5.322;2022-08-26T15:51:29;22.80;99.90
21216;DHT22;10765;50.954;5.322;2022-08-26T15:53:57;22.60;99.90
21216;DHT22;10765;50.954;5.322;2022-08-26T15:56:28;22.60;99.90